Weather History for K2I0 - September, 2013

Change the Weather History Date:

Friday, September 20, 2013

  Actual Average (KOWB) Record (KOWB)
Temperature  
Mean Temperature 76 °F -  
Max Temperature 83 °F 80 °F 96 °F (1972)
Min Temperature 68 °F 57 °F 40 °F (1956)
Cooling Degree Days 11    
Growing Degree Days 26 (Base 50)    
Moisture  
Dew Point 70 °F    
Average Humidity 88    
Maximum Humidity 100    
Minimum Humidity 66    
Precipitation  
Precipitation 0.70 in - - ()
Sea Level Pressure  
Sea Level Pressure 29.92 in    
Wind  
Wind Speed 6 mph (SW)    
Max Wind Speed 14 mph    
Max Gust Speed 20 mph    
Visibility 9 miles    
Events Rain    
Averages and records for this station are not official NWS values.
T = Trace of Precipitation, MM = Missing Value Source: NWS Daily Summary

Daily Weather History Graph

Daily Weather History Graph

Search for Another Location

Airport or City:

Trip Planner

Search our weather history database for the weather conditions in past years. The results will help you decide how hot, cold, wet, or windy it might be!

Date:

Astronomy

Sep. 20, 2013 Rise Set
Actual Time 6:35 AM CDT 6:49 PM CDT
Civil Twilight 6:09 AM CDT 7:15 PM CDT
Nautical Twilight 5:39 AM CDT 7:45 PM CDT
Astronomical Twilight 5:08 AM CDT 8:16 PM CDT
Moon 7:25 PM CDT (9/20) 7:47 AM CDT (9/20)
Length of Visible Light 13h 05m
Length of Day
12h 13m
Full, 98% of the Moon is Illuminated
Sep 20
Full
Sep 26
Last Quarter
Oct 4
New
Oct 11
First Quarter
Oct 18
Full

Hourly Weather History & Observations

Time (CDT) Temp. Heat Index Dew Point Humidity Pressure Visibility Wind Dir Wind Speed Gust Speed Precip Events Conditions
12:15 AM 73.4 °F - 71.2 °F 93% 30.00 in 10.0 mi South 3.5 mph - N/A   Clear
12:35 AM 73.0 °F - 71.2 °F 94% 29.99 in 10.0 mi South 5.8 mph - N/A   Clear
12:55 AM 72.9 °F - 70.9 °F 93% 29.99 in 10.0 mi South 5.8 mph - N/A   Clear
1:15 AM 73.2 °F - 70.7 °F 92% 29.99 in 10.0 mi South 5.8 mph - N/A   Clear
1:35 AM 73.4 °F - 70.7 °F 91% 29.99 in 10.0 mi South 5.8 mph - N/A   Clear
1:55 AM 73.4 °F - 70.7 °F 91% 29.99 in 10.0 mi South 5.8 mph - N/A   Clear
2:15 AM 73.8 °F - 70.2 °F 88% 29.99 in 10.0 mi SSW 6.9 mph - N/A   Clear
2:35 AM 73.4 °F - 69.8 °F 88% 29.98 in 10.0 mi South 5.8 mph - N/A   Clear
2:55 AM 72.9 °F - 69.6 °F 90% 29.98 in 10.0 mi South 5.8 mph - N/A   Clear
3:15 AM 72.7 °F - 69.3 °F 89% 29.98 in 10.0 mi South 5.8 mph - N/A   Clear
3:35 AM 72.5 °F - 69.1 °F 89% 29.97 in 10.0 mi South 6.9 mph - N/A   Clear
3:55 AM 72.5 °F - 68.9 °F 88% 29.97 in 10.0 mi South 5.8 mph - N/A   Clear
4:15 AM 72.1 °F - 68.9 °F 89% 29.97 in 10.0 mi South 5.8 mph - N/A   Clear
4:35 AM 72.5 °F - 68.5 °F 87% 29.97 in 10.0 mi South 4.6 mph - N/A   Clear
4:55 AM 71.6 °F - 68.4 °F 89% 29.97 in 10.0 mi South 4.6 mph - N/A   Clear
5:15 AM 71.1 °F - 68.2 °F 91% 29.97 in 10.0 mi South 3.5 mph - N/A   Clear
5:35 AM 70.7 °F - 68.2 °F 92% 29.96 in 10.0 mi Calm Calm - N/A   Clear
5:55 AM 69.8 °F - 68.0 °F 94% 29.96 in 10.0 mi South 5.8 mph - N/A   Clear
6:15 AM 69.4 °F - 68.2 °F 96% 29.96 in 10.0 mi SSW 4.6 mph - N/A   Clear
6:35 AM 70.5 °F - 68.2 °F 92% 29.96 in 10.0 mi SSW 8.1 mph - N/A   Clear
6:55 AM 71.2 °F - 68.0 °F 89% 29.96 in 10.0 mi SSW 6.9 mph - N/A   Scattered Clouds
7:15 AM 71.6 °F - 67.8 °F 88% 29.97 in 10.0 mi SSW 5.8 mph - N/A   Clear
7:35 AM 71.8 °F - 67.5 °F 86% 29.97 in 10.0 mi SSW 5.8 mph - N/A   Scattered Clouds
7:55 AM 73.0 °F - 68.0 °F 84% 29.97 in 10.0 mi SSW 9.2 mph - N/A   Mostly Cloudy
8:15 AM 73.8 °F - 68.0 °F 82% 29.97 in 10.0 mi SSW 8.1 mph - N/A   Overcast
8:35 AM 74.3 °F - 67.8 °F 80% 29.97 in 10.0 mi SSW 9.2 mph - N/A   Mostly Cloudy
8:55 AM 76.5 °F - 68.5 °F 76% 29.96 in 10.0 mi SSW 8.1 mph - N/A   Scattered Clouds
9:15 AM 79.0 °F - 69.3 °F 72% 29.96 in 10.0 mi SSW 12.7 mph 16.1 mph N/A   Scattered Clouds
9:35 AM 78.8 °F - 69.3 °F 72% 29.96 in 10.0 mi SSW 11.5 mph - N/A   Scattered Clouds
9:55 AM 79.0 °F - 69.1 °F 72% 29.96 in 10.0 mi SW 11.5 mph - N/A   Mostly Cloudy
10:15 AM 80.8 °F 83.9 °F 69.4 °F 68% 29.96 in 10.0 mi SW 13.8 mph 18.4 mph N/A   Mostly Cloudy
10:35 AM 81.9 °F 85.6 °F 69.8 °F 67% 29.96 in 10.0 mi WSW 12.7 mph 19.6 mph N/A   Mostly Cloudy
10:55 AM 81.5 °F 84.8 °F 69.3 °F 66% 29.96 in 10.0 mi WSW 12.7 mph - N/A   Overcast
11:15 AM 78.3 °F - 70.0 °F 76% 29.96 in 7.0 mi WSW 10.4 mph 19.6 mph 0.01 in Rain Rain
11:35 AM 79.3 °F - 72.1 °F 79% 29.95 in 10.0 mi SW 6.9 mph - 0.03 in   Mostly Cloudy
11:55 AM 81.1 °F 86.0 °F 72.9 °F 76% 29.94 in 10.0 mi SW 12.7 mph - 0.03 in   Mostly Cloudy
12:15 PM 81.9 °F 86.8 °F 72.5 °F 73% 29.93 in 10.0 mi SW 9.2 mph - N/A   Overcast
12:35 PM 81.9 °F 86.6 °F 72.1 °F 72% 29.93 in 10.0 mi WSW 8.1 mph - N/A   Overcast
12:55 PM 83.1 °F 88.4 °F 72.1 °F 69% 29.92 in 10.0 mi WSW 11.5 mph 16.1 mph N/A   Overcast
1:15 PM 83.3 °F 87.9 °F 71.1 °F 66% 29.91 in 10.0 mi SW 11.5 mph - N/A   Overcast
1:35 PM 82.6 °F 87.1 °F 71.1 °F 68% 29.90 in 10.0 mi WSW 9.2 mph - N/A   Overcast
1:55 PM 83.3 °F 87.9 °F 70.9 °F 66% 29.88 in 10.0 mi SW 8.1 mph - N/A   Overcast
2:15 PM 83.3 °F 88.2 °F 71.2 °F 67% 29.88 in 10.0 mi SW 5.8 mph - N/A   Overcast
2:35 PM 82.8 °F 87.2 °F 70.9 °F 67% 29.87 in 10.0 mi SSW 9.2 mph - N/A   Overcast
2:55 PM 82.4 °F 86.7 °F 70.9 °F 68% 29.86 in 10.0 mi SW 9.2 mph - N/A   Mostly Cloudy
3:15 PM 80.1 °F 83.7 °F 71.4 °F 75% 29.87 in 10.0 mi SW 10.4 mph - N/A Rain Light Rain
3:35 PM 78.3 °F - 72.9 °F 83% 29.87 in 10.0 mi SW 6.9 mph - N/A Rain Rain
3:55 PM 76.6 °F - 73.4 °F 90% 29.87 in 7.0 mi WSW 9.2 mph - 0.03 in Rain Light Rain
4:15 PM 75.4 °F - 73.9 °F 95% 29.88 in 7.0 mi West 9.2 mph - 0.02 in Rain Rain
4:35 PM 73.9 °F - 73.4 °F 98% 29.88 in 7.0 mi NW 3.5 mph - 0.03 in Rain Rain
4:55 PM 73.8 °F - 73.4 °F 99% 29.87 in 5.0 mi Calm Calm - 0.08 in Rain Rain
5:15 PM 73.6 °F - 73.4 °F 99% 29.88 in 7.0 mi West 3.5 mph - 0.02 in Rain Rain
5:35 PM 73.0 °F - 72.7 °F 99% 29.87 in 5.0 mi NNW 4.6 mph - 0.09 in Rain Rain
5:55 PM 72.5 °F - 72.3 °F 99% 29.87 in 7.0 mi Calm Calm - 0.12 in Rain Rain
6:15 PM 72.1 °F - 72.1 °F 100% 29.87 in 4.0 mi NNW 5.8 mph - 0.04 in Rain Rain
6:35 PM 71.6 °F - 71.6 °F 100% 29.86 in 7.0 mi North 6.9 mph - 0.07 in Rain Light Rain
6:55 PM 70.9 °F - 70.7 °F 99% 29.87 in 7.0 mi Calm Calm - 0.10 in Rain Rain
7:15 PM 70.7 °F - 70.7 °F 100% 29.86 in 7.0 mi Calm Calm - 0.03 in Rain Light Rain
7:35 PM 70.7 °F - 70.7 °F 100% 29.87 in 10.0 mi Calm Calm - 0.04 in Rain Light Rain
7:55 PM 70.7 °F - 70.7 °F 100% 29.86 in 7.0 mi NNW 3.5 mph - 0.04 in   Drizzle
8:15 PM 70.3 °F - 70.3 °F 100% 29.86 in 7.0 mi NNE 3.5 mph - 0.01 in Rain Light Rain
8:35 PM 70.3 °F - 70.3 °F 100% 29.86 in 7.0 mi Calm Calm - 0.02 in Rain Rain
8:55 PM 70.2 °F - 70.2 °F 100% 29.86 in 7.0 mi North 3.5 mph - 0.04 in Rain Light Rain
9:15 PM 70.0 °F - 70.0 °F 100% 29.86 in 10.0 mi Calm Calm - 0.01 in Rain Light Rain
9:35 PM 69.8 °F - 69.8 °F 100% 29.86 in 7.0 mi Calm Calm - 0.04 in Rain Rain
9:55 PM 69.8 °F - 69.8 °F 100% 29.86 in 7.0 mi Calm Calm - 0.09 in Rain Heavy Rain
10:15 PM 69.4 °F - 69.4 °F 100% 29.85 in 5.0 mi North 3.5 mph - 0.03 in Rain Rain
10:35 PM 69.3 °F - 69.3 °F 100% 29.86 in 7.0 mi Calm Calm - 0.07 in Rain Light Rain
10:55 PM 69.1 °F - 69.1 °F 100% 29.86 in 7.0 mi NNW 3.5 mph - 0.11 in Rain Rain
11:15 PM 69.1 °F - 69.1 °F 100% 29.85 in - Calm Calm - 0.01 in   Unknown
11:35 PM 69.1 °F - 69.1 °F 100% 29.84 in 7.0 mi North 3.5 mph - 0.04 in Rain Rain
11:55 PM 68.9 °F - 68.9 °F 100% 29.83 in - NNE 4.6 mph - 0.06 in   Unknown